createdAt,value
2019-02-20T00:02:15.823Z,100995.74
2019-02-20T00:04:47.439Z,100992.70
2019-02-20T00:07:19.040Z,100994.81
2019-02-20T00:09:50.528Z,100997.38
2019-02-20T00:12:21.910Z,100997.75
2019-02-20T00:14:53.461Z,100995.55
2019-02-20T00:17:25.006Z,100994.23
2019-02-20T00:19:56.587Z,100997.27
2019-02-20T00:22:28.044Z,100995.08
2019-02-20T00:24:59.450Z,100992.50
2019-02-20T00:27:30.849Z,100999.91
2019-02-20T00:30:02.242Z,100989.00
2019-02-20T00:32:35.214Z,100988.17
2019-02-20T00:35:06.725Z,100989.05
2019-02-20T00:37:38.234Z,100985.50
2019-02-20T00:40:09.884Z,100986.75
2019-02-20T00:42:43.690Z,100985.41
2019-02-20T00:45:36.915Z,100992.84
2019-02-20T00:48:30.876Z,100994.52
2019-02-20T00:51:28.216Z,100997.50
2019-02-20T00:54:02.433Z,100997.13
2019-02-20T00:56:33.927Z,101001.47
2019-02-20T00:59:05.357Z,101002.31
2019-02-20T01:01:36.848Z,101003.95
2019-02-20T01:04:08.296Z,101010.55
2019-02-20T01:06:39.746Z,101012.22
2019-02-20T01:09:11.403Z,101007.36
2019-02-20T01:11:42.906Z,101017.36
2019-02-20T01:14:14.382Z,101012.59
2019-02-20T01:16:45.754Z,101019.08
2019-02-20T01:19:17.288Z,101017.77
2019-02-20T01:21:48.751Z,101015.16
2019-02-20T01:24:21.281Z,101009.91
2019-02-20T01:26:52.685Z,101012.45
2019-02-20T01:29:24.173Z,101009.78
2019-02-20T01:31:55.574Z,101015.42
2019-02-20T01:34:26.993Z,101010.61
2019-02-20T01:36:58.449Z,101014.95
2019-02-20T01:39:29.858Z,101015.33
2019-02-20T01:42:02.258Z,101015.69
2019-02-20T01:44:33.710Z,101020.94
2019-02-20T01:47:05.214Z,101020.50
2019-02-20T01:49:36.747Z,101026.58
2019-02-20T01:52:08.335Z,101023.02
2019-02-20T01:54:46.041Z,101025.17
2019-02-20T01:57:17.769Z,101021.67
2019-02-20T01:59:49.263Z,101027.73
2019-02-20T02:02:20.686Z,101020.92
2019-02-20T02:04:52.260Z,101023.48
2019-02-20T02:07:23.666Z,101021.77
2019-02-20T02:09:56.179Z,101018.26
2019-02-20T02:12:27.661Z,101021.81
2019-02-20T02:14:59.137Z,101020.98
2019-02-20T02:17:30.715Z,101017.11
2019-02-20T02:20:02.280Z,101016.73
2019-02-20T02:22:34.392Z,101018.52
2019-02-20T02:25:06.196Z,101019.41
2019-02-20T02:27:37.804Z,101018.14
2019-02-20T02:30:10.630Z,101020.23
2019-02-20T02:32:42.093Z,101029.45
2019-02-20T02:35:13.558Z,101023.84
2019-02-20T02:37:45.285Z,101029.55
2019-02-20T02:40:16.700Z,101023.02
2019-02-20T02:42:48.267Z,101025.21
2019-02-20T02:45:19.938Z,101029.55
2019-02-20T02:47:51.440Z,101029.97
2019-02-20T02:50:23.986Z,101036.56
2019-02-20T02:52:55.467Z,101031.28
2019-02-20T02:55:26.933Z,101039.28
2019-02-20T02:57:58.347Z,101031.75
2019-02-20T03:00:29.944Z,101033.47
2019-02-20T03:03:01.383Z,101033.00
2019-02-20T03:05:32.936Z,101040.44
2019-02-20T03:08:04.442Z,101039.88
2019-02-20T03:10:35.976Z,101039.08
2019-02-20T03:13:07.488Z,101036.93
2019-02-20T03:15:38.951Z,101036.88
2019-02-20T03:18:10.343Z,101040.86
2019-02-20T03:20:41.865Z,101042.90
2019-02-20T03:23:13.298Z,101043.79
2019-02-20T03:25:44.802Z,101046.26
2019-02-20T03:28:16.246Z,101047.10
2019-02-20T03:30:47.686Z,101052.34
2019-02-20T03:33:19.161Z,101049.28
2019-02-20T03:35:50.571Z,101054.36
2019-02-20T03:38:30.038Z,101056.09
2019-02-20T03:40:55.285Z,101059.14
2019-02-20T03:43:26.766Z,101056.97
2019-02-20T03:45:59.897Z,101063.88
2019-02-20T03:48:31.621Z,101061.59
2019-02-20T03:51:03.173Z,101066.97
2019-02-20T03:53:34.656Z,101061.27
2019-02-20T03:56:06.407Z,101061.73
2019-02-20T03:58:37.892Z,101061.22
2019-02-20T04:01:09.329Z,101059.91
2019-02-20T04:03:41.945Z,101057.30
2019-02-20T04:06:13.437Z,101062.11
2019-02-20T04:08:44.891Z,101059.86
2019-02-20T04:11:16.315Z,101057.67
2019-02-20T04:13:47.816Z,101057.97
2019-02-20T04:16:19.370Z,101051.55
2019-02-20T04:18:53.713Z,101065.92
2019-02-20T04:21:25.241Z,101062.53
2019-02-20T04:24:02.362Z,101068.12
2019-02-20T04:26:30.015Z,101074.67
2019-02-20T04:29:01.713Z,101076.92
2019-02-20T04:31:34.402Z,101076.80
2019-02-20T04:34:05.955Z,101077.22
2019-02-20T04:36:39.273Z,101077.64
2019-02-20T04:39:11.928Z,101077.69
2019-02-20T04:41:43.663Z,101077.64
2019-02-20T04:44:15.390Z,101074.19
2019-02-20T04:46:47.218Z,101075.45
2019-02-20T04:49:18.721Z,101073.63
2019-02-20T04:51:56.236Z,101081.03
2019-02-20T04:54:27.889Z,101073.44
2019-02-20T04:56:59.618Z,101075.70
2019-02-20T04:59:32.424Z,101079.11
2019-02-20T05:02:05.609Z,101082.17
2019-02-20T05:04:37.162Z,101072.20
2019-02-20T05:07:08.802Z,101077.43
2019-02-20T05:09:40.361Z,101075.70
2019-02-20T05:12:13.463Z,101080.94
2019-02-20T05:14:45.141Z,101084.81
2019-02-20T05:17:16.608Z,101083.65
2019-02-20T05:19:48.079Z,101089.31
2019-02-20T05:22:19.554Z,101093.64
2019-02-20T05:24:53.138Z,101097.56
2019-02-20T05:27:24.641Z,101095.32
2019-02-20T05:29:57.623Z,101091.91
2019-02-20T05:32:29.011Z,101098.52
2019-02-20T05:35:00.713Z,101101.55
2019-02-20T05:37:32.263Z,101104.17
2019-02-20T05:40:03.697Z,101105.02
2019-02-20T05:42:35.251Z,101108.98
2019-02-20T05:45:06.937Z,101102.92
2019-02-20T05:47:38.407Z,101100.67
2019-02-20T05:50:09.887Z,101106.30
2019-02-20T05:52:41.429Z,101103.27
2019-02-20T05:55:12.851Z,101106.79
2019-02-20T05:57:45.643Z,101112.02
2019-02-20T06:00:18.109Z,101113.80
2019-02-20T06:02:49.529Z,101119.03
2019-02-20T06:05:21.083Z,101114.80
2019-02-20T06:07:52.451Z,101117.30
2019-02-20T06:10:23.882Z,101122.53
2019-02-20T06:12:55.617Z,101125.20
2019-02-20T06:15:27.033Z,101125.63
2019-02-20T06:17:58.514Z,101136.03
2019-02-20T06:20:30.011Z,101135.56
2019-02-20T06:23:01.454Z,101138.66
2019-02-20T06:25:32.970Z,101136.45
2019-02-20T06:28:04.461Z,101142.16
2019-02-20T06:30:35.973Z,101147.91
2019-02-20T06:33:07.407Z,101146.62
2019-02-20T06:35:39.063Z,101154.45
2019-02-20T06:38:11.439Z,101158.02
2019-02-20T06:40:43.239Z,101163.20
2019-02-20T06:43:15.934Z,101161.89
2019-02-20T06:45:53.812Z,101172.41
2019-02-20T06:48:25.499Z,101169.27
2019-02-20T06:50:56.986Z,101176.81
2019-02-20T06:53:28.487Z,101175.03
2019-02-20T06:56:00.014Z,101178.59
2019-02-20T06:58:31.810Z,101181.38
2019-02-20T07:01:03.398Z,101177.45
2019-02-20T07:03:35.612Z,101174.41
2019-02-20T07:06:59.979Z,101167.45
2019-02-20T07:10:24.346Z,101170.09
2019-02-20T07:13:27.069Z,101176.70
2019-02-20T07:16:41.194Z,101182.05
2019-02-20T07:19:52.687Z,101184.03
2019-02-20T07:22:58.420Z,101191.59
2019-02-20T07:26:08.147Z,101193.64
2019-02-20T07:29:27.854Z,101195.25
2019-02-20T07:31:59.317Z,101198.81
2019-02-20T07:34:30.761Z,101200.53
2019-02-20T07:37:02.321Z,101203.27
2019-02-20T07:39:33.759Z,101208.19
2019-02-20T07:42:05.159Z,101206.73
2019-02-20T07:44:36.673Z,101207.20
2019-02-20T07:47:08.124Z,101208.66
2019-02-20T07:49:39.560Z,101215.80
2019-02-20T07:52:10.938Z,101220.41
2019-02-20T07:54:42.461Z,101225.27
2019-02-20T07:57:13.869Z,101226.65
2019-02-20T07:59:45.300Z,101227.95
2019-02-20T08:02:16.805Z,101237.55
2019-02-20T08:04:48.204Z,101238.13
2019-02-20T08:07:19.679Z,101235.70
2019-02-20T08:09:51.096Z,101241.38
2019-02-20T08:12:22.682Z,101243.11
2019-02-20T08:14:55.221Z,101255.67
2019-02-20T08:17:26.619Z,101255.98
2019-02-20T08:19:59.174Z,101260.58
2019-02-20T08:22:30.601Z,101263.68
2019-02-20T08:25:02.073Z,101257.08
2019-02-20T08:27:33.544Z,101253.88
2019-02-20T08:30:06.688Z,101255.33
2019-02-20T08:32:38.159Z,101263.96
2019-02-20T08:35:10.116Z,101269.16
2019-02-20T08:37:41.992Z,101283.08
2019-02-20T08:40:15.291Z,101281.14
2019-02-20T08:42:46.728Z,101284.80
2019-02-20T08:45:18.121Z,101286.38
2019-02-20T08:47:49.589Z,101286.20
2019-02-20T08:50:21.064Z,101284.29
2019-02-20T08:52:52.520Z,101282.98
2019-02-20T08:55:31.760Z,101279.62
2019-02-20T08:57:57.097Z,101284.93
2019-02-20T09:00:28.540Z,101276.08
2019-02-20T09:02:59.970Z,101284.03
2019-02-20T09:05:34.126Z,101294.08
2019-02-20T09:08:04.918Z,101292.52
2019-02-20T09:10:36.344Z,101291.54
2019-02-20T09:13:07.754Z,101298.84
2019-02-20T09:15:39.180Z,101297.17
2019-02-20T09:18:10.614Z,101298.66
2019-02-20T09:20:42.394Z,101303.99
2019-02-20T09:23:13.754Z,101308.22
2019-02-20T09:25:45.208Z,101306.32
2019-02-20T09:28:19.129Z,101304.81
2019-02-20T09:30:50.650Z,101312.44
2019-02-20T09:33:22.093Z,101315.16
2019-02-20T09:35:53.569Z,101316.02
2019-02-20T09:38:24.935Z,101314.52
2019-02-20T09:40:56.333Z,101318.08
2019-02-20T09:43:27.723Z,101313.22
2019-02-20T09:45:59.244Z,101310.72
2019-02-20T09:48:30.695Z,101319.50
2019-02-20T09:51:02.124Z,101313.84
2019-02-20T09:53:33.516Z,101317.06
2019-02-20T09:56:05.003Z,101319.89
2019-02-20T09:58:36.499Z,101322.28
2019-02-20T10:01:07.899Z,101316.56
2019-02-20T10:03:39.404Z,101321.32
2019-02-20T10:06:12.874Z,101322.53
2019-02-20T10:08:43.973Z,101314.08
2019-02-20T10:11:15.370Z,101308.58
2019-02-20T10:13:47.152Z,101317.58
2019-02-20T10:16:18.592Z,101320.55
2019-02-20T10:18:49.975Z,101318.01
2019-02-20T10:21:21.339Z,101317.48
2019-02-20T10:23:52.779Z,101318.30
2019-02-20T10:26:24.183Z,101323.17
2019-02-20T10:28:55.669Z,101326.04
2019-02-20T10:31:30.019Z,101327.68
2019-02-20T10:34:01.406Z,101318.14
2019-02-20T10:36:33.831Z,101332.61
2019-02-20T10:39:08.001Z,101331.41
2019-02-20T10:41:39.825Z,101332.61
2019-02-20T10:44:12.264Z,101336.40
2019-02-20T10:46:43.745Z,101335.91
2019-02-20T10:49:16.228Z,101337.19
2019-02-20T10:51:48.659Z,101343.24
2019-02-20T10:54:22.550Z,101339.63
2019-02-20T10:56:56.481Z,101343.96
2019-02-20T10:59:28.252Z,101340.73
2019-02-20T11:01:59.669Z,101344.46
2019-02-20T11:04:31.141Z,101340.02
2019-02-20T11:07:05.303Z,101349.26
2019-02-20T11:09:36.794Z,101349.69
2019-02-20T11:12:08.168Z,101354.52
2019-02-20T11:14:39.753Z,101354.09
2019-02-20T11:17:11.302Z,101357.81
2019-02-20T11:19:42.840Z,101365.13
2019-02-20T11:22:14.204Z,101361.77
2019-02-20T11:24:45.621Z,101365.36
2019-02-20T11:27:17.039Z,101361.48
2019-02-20T11:29:48.538Z,101366.70
2019-02-20T11:32:20.025Z,101369.77
2019-02-20T11:34:51.449Z,101366.87
2019-02-20T11:37:22.807Z,101372.52
2019-02-20T11:39:54.257Z,101367.25
2019-02-20T11:42:25.808Z,101376.03
2019-02-20T11:44:57.245Z,101374.68
2019-02-20T11:47:28.676Z,101376.73
2019-02-20T11:50:00.211Z,101379.98
2019-02-20T11:52:38.195Z,101380.48
2019-02-20T11:55:05.564Z,101385.51
2019-02-20T11:57:37.112Z,101382.95
2019-02-20T12:00:09.997Z,101389.37
2019-02-20T12:02:42.247Z,101388.06
2019-02-20T12:05:13.868Z,101389.37
2019-02-20T12:07:45.405Z,101397.69
2019-02-20T12:10:18.359Z,101391.66
2019-02-20T12:12:50.903Z,101396.22
2019-02-20T12:15:22.287Z,101388.29
2019-02-20T12:17:53.765Z,101387.41
2019-02-20T12:20:25.136Z,101393.97
2019-02-20T12:22:56.628Z,101395.36
2019-02-20T12:25:28.113Z,101394.94
2019-02-20T12:27:59.488Z,101388.25
2019-02-20T12:30:30.860Z,101394.91
2019-02-20T12:33:02.263Z,101395.75
2019-02-20T12:35:36.156Z,101397.06
2019-02-20T12:38:07.665Z,101398.00
2019-02-20T12:40:39.062Z,101398.70
2019-02-20T12:43:10.447Z,101400.52
2019-02-20T12:45:42.184Z,101403.56
2019-02-20T12:48:13.576Z,101408.83
2019-02-20T12:50:44.979Z,101409.80
2019-02-20T12:53:16.415Z,101409.76
2019-02-20T12:55:47.892Z,101413.27
2019-02-20T12:58:19.375Z,101409.17
2019-02-20T13:00:50.773Z,101410.95
2019-02-20T13:03:22.242Z,101411.73
2019-02-20T13:05:53.785Z,101406.94
2019-02-20T13:08:25.385Z,101408.67
2019-02-20T13:10:57.828Z,101416.17
2019-02-20T13:13:29.238Z,101414.74
2019-02-20T13:16:09.321Z,101410.84
2019-02-20T13:18:33.808Z,101408.62
2019-02-20T13:21:05.348Z,101404.65
2019-02-20T13:23:36.757Z,101411.14
2019-02-20T13:26:08.166Z,101411.61
2019-02-20T13:28:39.611Z,101416.52
2019-02-20T13:31:11.034Z,101427.08
2019-02-20T13:33:42.586Z,101416.17
2019-02-20T13:36:14.118Z,101423.22
2019-02-20T13:38:46.302Z,101427.31
2019-02-20T13:41:18.722Z,101428.55
2019-02-20T13:43:51.165Z,101433.89
2019-02-20T13:46:22.572Z,101431.27
2019-02-20T13:48:53.956Z,101430.37
2019-02-20T13:51:25.370Z,101430.37
2019-02-20T13:53:58.413Z,101440.34
2019-02-20T13:56:29.826Z,101433.62
2019-02-20T13:59:01.199Z,101433.92
2019-02-20T14:01:32.617Z,101437.40
2019-02-20T14:04:04.117Z,101440.03
2019-02-20T14:06:36.037Z,101438.94
2019-02-20T14:09:07.776Z,101436.18
2019-02-20T14:11:40.881Z,101445.33
2019-02-20T14:14:12.354Z,101447.12
2019-02-20T14:16:43.730Z,101453.26
2019-02-20T14:19:15.962Z,101444.06
2019-02-20T14:21:47.352Z,101448.52
2019-02-20T14:24:21.074Z,101445.08
2019-02-20T14:26:52.538Z,101456.06
2019-02-20T14:29:24.022Z,101454.75
2019-02-20T14:31:55.868Z,101449.45
2019-02-20T14:34:27.356Z,101447.75
2019-02-20T14:36:58.768Z,101452.67
2019-02-20T14:39:31.219Z,101457.59
2019-02-20T14:42:03.349Z,101458.90
2019-02-20T14:44:35.029Z,101467.69
2019-02-20T14:47:06.489Z,101464.20
2019-02-20T14:49:38.025Z,101464.63
2019-02-20T14:52:09.429Z,101471.63
2019-02-20T14:54:41.415Z,101467.25
2019-02-20T14:57:19.376Z,101471.19
2019-02-20T14:59:46.027Z,101475.98
2019-02-20T15:02:17.452Z,101472.98
2019-02-20T15:04:51.121Z,101470.35
2019-02-20T15:07:22.592Z,101466.78
2019-02-20T15:09:54.203Z,101471.58
2019-02-20T15:12:25.671Z,101475.06
2019-02-20T15:14:59.947Z,101477.22
2019-02-20T15:17:34.005Z,101479.42
2019-02-20T15:20:05.961Z,101478.54
2019-02-20T15:22:37.818Z,101481.97
2019-02-20T15:25:09.351Z,101480.09
2019-02-20T15:27:40.937Z,101481.84
2019-02-20T15:30:13.860Z,101477.86
2019-02-20T15:32:45.388Z,101481.28
2019-02-20T15:35:17.244Z,101476.80
2019-02-20T15:37:48.701Z,101485.52
2019-02-20T15:40:21.332Z,101485.52
2019-02-20T15:42:52.769Z,101492.94
2019-02-20T15:45:24.200Z,101490.22
2019-02-20T15:47:56.213Z,101487.92
2019-02-20T15:50:27.674Z,101497.92
2019-02-20T15:52:59.063Z,101495.30
2019-02-20T15:55:30.544Z,101492.58
2019-02-20T15:58:01.949Z,101493.42
2019-02-20T16:00:33.526Z,101501.22
2019-02-20T16:03:05.488Z,101493.14
2019-02-20T16:05:37.040Z,101503.22
2019-02-20T16:08:08.941Z,101501.86
2019-02-20T16:10:41.336Z,101507.45
2019-02-20T16:13:12.728Z,101506.12
2019-02-20T16:15:44.147Z,101515.19
2019-02-20T16:18:16.878Z,101517.29
2019-02-20T16:20:48.711Z,101516.82
2019-02-20T16:23:20.196Z,101517.76
2019-02-20T16:25:51.626Z,101517.56
2019-02-20T16:28:27.896Z,101522.39
2019-02-20T16:30:59.638Z,101527.64
2019-02-20T16:33:31.113Z,101528.11
2019-02-20T16:36:03.024Z,101529.34
2019-02-20T16:38:34.678Z,101542.88
2019-02-20T16:41:09.050Z,101541.63
2019-02-20T16:43:40.670Z,101544.63
2019-02-20T16:46:12.114Z,101541.25
2019-02-20T16:48:43.540Z,101540.77
2019-02-20T16:51:15.372Z,101545.71
2019-02-20T16:53:46.973Z,101550.55
2019-02-20T16:56:18.501Z,101550.03
2019-02-20T16:59:14.901Z,101558.42
2019-02-20T17:01:53.117Z,101561.94
2019-02-20T17:04:27.088Z,101560.20
2019-02-20T17:07:00.308Z,101560.53
2019-02-20T17:09:43.995Z,101567.56
2019-02-20T17:12:17.696Z,101572.02
2019-02-20T17:14:50.330Z,101575.41
2019-02-20T17:17:22.557Z,101562.73
2019-02-20T17:20:01.858Z,101572.77
2019-02-20T17:22:33.992Z,101567.82
2019-02-20T17:25:06.654Z,101580.06
2019-02-20T17:27:42.787Z,101581.59
2019-02-20T17:30:20.621Z,101582.86
2019-02-20T17:33:05.575Z,101580.60
2019-02-20T17:35:39.618Z,101582.14
2019-02-20T17:38:11.103Z,101577.77
2019-02-20T17:40:43.555Z,101578.94
2019-02-20T17:43:18.286Z,101583.75
2019-02-20T17:45:52.529Z,101589.31
2019-02-20T17:48:45.459Z,101587.94
2019-02-20T17:51:17.988Z,101590.98
2019-02-20T17:56:51.956Z,101594.50
2019-02-20T17:59:25.292Z,101595.41
2019-02-20T18:02:04.118Z,101592.62
2019-02-20T18:04:36.076Z,101592.57
2019-02-20T18:07:07.768Z,101596.91
2019-02-20T18:09:39.368Z,101600.70
2019-02-20T18:12:10.893Z,101600.70
2019-02-20T18:14:42.370Z,101599.73
2019-02-20T18:17:13.905Z,101604.44
2019-02-20T18:19:45.416Z,101609.64
2019-02-20T18:22:20.094Z,101602.14
2019-02-20T18:24:52.701Z,101605.60
2019-02-20T18:27:24.444Z,101610.41
2019-02-20T18:29:55.985Z,101605.58
2019-02-20T18:32:27.661Z,101612.14
2019-02-20T18:34:59.132Z,101607.78
2019-02-20T18:37:30.977Z,101612.98
2019-02-20T18:40:02.883Z,101616.45
2019-02-20T18:42:36.238Z,101622.06
2019-02-20T18:45:11.916Z,101624.66
2019-02-20T18:47:43.634Z,101623.79
2019-02-20T18:50:16.340Z,101628.50
2019-02-20T18:52:47.929Z,101635.52
2019-02-20T18:55:19.408Z,101635.11
2019-02-20T18:57:51.011Z,101637.26
2019-02-20T19:00:22.790Z,101635.58
2019-02-20T19:02:54.537Z,101640.77
2019-02-20T19:05:26.147Z,101639.11
2019-02-20T19:07:57.658Z,101650.13
2019-02-20T19:10:35.613Z,101646.98
2019-02-20T19:13:30.214Z,101647.22
2019-02-20T19:16:28.691Z,101643.29
2019-02-20T19:19:29.761Z,101650.01
2019-02-20T19:22:16.060Z,101650.08
2019-02-20T19:25:29.646Z,101641.84
2019-02-20T19:28:44.242Z,101647.58
2019-02-20T19:31:39.068Z,101645.30
2019-02-20T19:34:40.231Z,101649.71
2019-02-20T19:38:06.520Z,101651.27
2019-02-20T19:41:14.082Z,101653.36
2019-02-20T19:44:53.933Z,101655.49
2019-02-20T19:47:57.883Z,101661.45
2019-02-20T19:50:58.111Z,101653.60
2019-02-20T19:54:22.814Z,101662.36
2019-02-20T19:57:41.629Z,101661.00
2019-02-20T20:00:35.461Z,101657.95
2019-02-20T20:03:54.361Z,101658.42
2019-02-20T20:06:56.150Z,101661.39
2019-02-20T20:09:48.240Z,101656.80
2019-02-20T20:13:28.121Z,101656.33
2019-02-20T20:16:35.144Z,101657.64
2019-02-20T20:19:54.236Z,101656.70
2019-02-20T20:23:28.179Z,101657.22
2019-02-20T20:26:36.924Z,101656.38
2019-02-20T20:29:48.070Z,101662.58
2019-02-20T20:32:52.253Z,101657.33
2019-02-20T20:35:56.290Z,101660.31
2019-02-20T20:38:49.892Z,101664.67
2019-02-20T20:41:52.359Z,101660.81
2019-02-20T20:44:49.238Z,101665.69
2019-02-20T20:47:49.069Z,101663.07
2019-02-20T20:51:09.390Z,101662.70
2019-02-20T20:54:15.173Z,101660.98
2019-02-20T20:57:39.884Z,101664.93
2019-02-20T21:01:04.358Z,101667.14
2019-02-20T21:03:41.967Z,101657.46
2019-02-20T21:06:54.676Z,101664.49
2019-02-20T21:09:53.631Z,101657.04
2019-02-20T21:12:45.913Z,101661.34
2019-02-20T21:16:15.213Z,101658.72
2019-02-20T21:19:24.886Z,101660.87
2019-02-20T21:22:36.853Z,101655.15
2019-02-20T21:25:58.083Z,101658.64
2019-02-20T21:29:01.930Z,101655.08
2019-02-20T21:32:26.378Z,101661.28
2019-02-20T21:35:30.067Z,101664.31
2019-02-20T21:38:42.797Z,101661.27
2019-02-20T21:41:43.730Z,101665.80
2019-02-20T21:45:14.594Z,101668.68
2019-02-20T21:48:19.700Z,101666.53
2019-02-20T21:51:06.266Z,101669.02
2019-02-20T21:54:21.024Z,101670.34
2019-02-20T21:57:31.642Z,101669.50
2019-02-20T22:00:53.446Z,101664.72
2019-02-20T22:04:15.192Z,101671.28
2019-02-20T22:07:12.885Z,101669.13
2019-02-20T22:10:23.914Z,101677.91
2019-02-20T22:13:23.567Z,101672.67
2019-02-20T22:16:27.597Z,101676.53
2019-02-20T22:19:44.847Z,101674.69
2019-02-20T22:23:14.604Z,101679.41
2019-02-20T22:26:17.336Z,101682.03
2019-02-20T22:29:20.187Z,101678.44
2019-02-20T22:32:29.322Z,101685.52
2019-02-20T22:35:50.828Z,101679.86
2019-02-20T22:38:54.489Z,101678.97
2019-02-20T22:41:54.687Z,101678.48
2019-02-20T22:45:16.403Z,101679.04
2019-02-20T22:48:14.004Z,101679.41
2019-02-20T22:51:33.089Z,101685.09
2019-02-20T22:54:25.835Z,101688.14
2019-02-20T22:57:33.238Z,101685.55
2019-02-20T23:00:51.386Z,101682.84
2019-02-20T23:04:04.984Z,101684.57
2019-02-20T23:07:05.742Z,101687.27
2019-02-20T23:10:04.656Z,101683.27
2019-02-20T23:13:25.095Z,101686.78
2019-02-20T23:15:56.855Z,101684.57
2019-02-20T23:18:28.605Z,101686.24
2019-02-20T23:21:00.601Z,101689.28
2019-02-20T23:23:32.314Z,101693.75
2019-02-20T23:26:04.044Z,101692.44
2019-02-20T23:28:35.745Z,101691.55
2019-02-20T23:31:07.585Z,101686.78
2019-02-20T23:33:39.626Z,101689.88
2019-02-20T23:36:17.000Z,101689.45
2019-02-20T23:38:48.728Z,101689.89
2019-02-20T23:41:20.362Z,101688.16
2019-02-20T23:43:51.987Z,101692.58
2019-02-20T23:46:24.748Z,101688.28
2019-02-20T23:48:56.376Z,101693.52
2019-02-20T23:51:27.876Z,101685.66
2019-02-20T23:53:59.454Z,101686.02
2019-02-20T23:56:31.050Z,101686.85
2019-02-20T23:59:02.589Z,101684.20
